createdAt,value
2024-02-08T00:03:15.782Z,4.07
2024-02-08T00:08:15.754Z,4.08
2024-02-08T00:13:15.631Z,4.00
2024-02-08T00:18:15.662Z,3.89
2024-02-08T00:23:15.686Z,3.82
2024-02-08T00:28:15.430Z,3.76
2024-02-08T00:33:15.393Z,3.72
2024-02-08T00:38:15.478Z,3.75
2024-02-08T00:43:15.246Z,3.85
2024-02-08T00:48:15.258Z,4.00
2024-02-08T00:53:15.308Z,3.86
2024-02-08T00:58:15.022Z,3.83
2024-02-08T01:03:15.061Z,3.79
2024-02-08T01:08:14.886Z,3.76
2024-02-08T01:13:14.820Z,3.71
2024-02-08T01:18:14.949Z,3.68
2024-02-08T01:23:14.757Z,3.61
2024-02-08T01:28:14.631Z,3.44
2024-02-08T01:33:14.633Z,3.30
2024-02-08T01:38:14.528Z,3.12
2024-02-08T01:43:14.425Z,3.05
2024-02-08T01:48:14.443Z,2.94
2024-02-08T01:53:14.329Z,2.92
2024-02-08T01:58:14.216Z,2.89
2024-02-08T02:03:14.512Z,2.79
2024-02-08T02:08:14.106Z,2.74
2024-02-08T02:13:14.039Z,2.73
2024-02-08T02:18:14.078Z,2.74
2024-02-08T02:23:13.917Z,2.74
2024-02-08T02:28:13.862Z,2.77
2024-02-08T02:33:13.923Z,2.67
2024-02-08T02:38:13.961Z,2.63
2024-02-08T02:43:13.742Z,2.55
2024-02-08T02:48:13.886Z,2.49
2024-02-08T02:53:13.618Z,2.28
2024-02-08T02:58:13.716Z,2.20
2024-02-08T03:03:14.214Z,2.26
2024-02-08T03:08:13.500Z,2.23
2024-02-08T03:13:13.303Z,2.23
2024-02-08T03:18:13.281Z,2.33
2024-02-08T03:23:13.216Z,2.38
2024-02-08T03:28:13.365Z,2.45
2024-02-08T03:33:13.192Z,2.53
2024-02-08T03:38:13.079Z,2.55
2024-02-08T03:43:12.902Z,2.63
2024-02-08T03:48:13.046Z,2.61
2024-02-08T03:53:12.874Z,2.61
2024-02-08T03:58:12.698Z,2.67
2024-02-08T04:03:12.680Z,2.66
2024-02-08T04:08:12.610Z,2.58
2024-02-08T04:13:12.517Z,2.56
2024-02-08T04:18:12.529Z,2.63
2024-02-08T04:23:12.469Z,2.69
2024-02-08T04:28:12.345Z,2.61
2024-02-08T04:33:12.357Z,2.58
2024-02-08T04:38:12.283Z,2.66
2024-02-08T04:43:12.126Z,2.73
2024-02-08T04:48:12.136Z,2.77
2024-02-08T04:53:12.042Z,2.67
2024-02-08T04:58:27.928Z,2.77
2024-02-08T05:03:12.840Z,3.05
2024-02-08T05:08:11.812Z,2.97
2024-02-08T05:13:11.773Z,3.05
2024-02-08T05:18:11.732Z,3.10
2024-02-08T05:23:11.607Z,2.95
2024-02-08T05:28:11.654Z,2.95
2024-02-08T05:33:12.773Z,3.13
2024-02-08T05:38:11.444Z,3.25
2024-02-08T05:43:11.433Z,3.42
2024-02-08T05:48:11.528Z,3.44
2024-02-08T05:53:11.222Z,3.54
2024-02-08T05:58:11.208Z,3.68
2024-02-08T06:03:11.092Z,3.82
2024-02-08T06:08:11.055Z,3.96
2024-02-08T06:13:10.955Z,4.01
2024-02-08T06:18:10.928Z,4.16
2024-02-08T06:23:10.819Z,4.26
2024-02-08T06:28:10.853Z,4.37
2024-02-08T06:33:10.792Z,4.52
2024-02-08T06:38:10.696Z,4.54
2024-02-08T06:43:10.655Z,4.52
2024-02-08T06:48:10.587Z,4.54
2024-02-08T06:53:10.444Z,4.57
2024-02-08T06:58:10.460Z,4.59
2024-02-08T07:03:10.352Z,4.76
2024-02-08T07:08:10.412Z,4.80
2024-02-08T07:13:10.258Z,4.79
2024-02-08T07:18:13.407Z,4.83
2024-02-08T07:23:10.082Z,5.05
2024-02-08T07:28:10.028Z,5.05
2024-02-08T07:33:10.038Z,5.30
2024-02-08T07:38:09.890Z,5.19
2024-02-08T07:43:09.832Z,5.10
2024-02-08T07:48:10.120Z,5.12
2024-02-08T07:53:09.650Z,5.10
2024-02-08T07:58:10.120Z,5.16
2024-02-08T08:03:09.531Z,5.25
2024-02-08T08:08:09.482Z,5.37
2024-02-08T08:13:09.442Z,5.57
2024-02-08T08:18:09.379Z,5.70
2024-02-08T08:23:09.856Z,5.71
2024-02-08T08:28:09.206Z,5.89
2024-02-08T08:33:09.299Z,5.95
2024-02-08T08:38:09.237Z,6.13
2024-02-08T08:43:09.048Z,6.32
2024-02-08T08:48:09.133Z,6.61
2024-02-08T08:53:08.954Z,6.71
2024-02-08T08:58:08.886Z,6.80
2024-02-08T09:03:08.787Z,6.83
2024-02-08T09:08:08.746Z,6.94
2024-02-08T09:13:08.704Z,6.80
2024-02-08T09:18:08.631Z,6.80
2024-02-08T09:23:08.472Z,6.99
2024-02-08T09:28:08.460Z,7.09
2024-02-08T09:33:08.387Z,7.04
2024-02-08T09:38:08.280Z,7.29
2024-02-08T09:43:08.335Z,7.56
2024-02-08T09:48:08.499Z,7.50
2024-02-08T09:53:08.159Z,7.59
2024-02-08T09:58:08.064Z,7.58
2024-02-08T10:03:08.122Z,7.40
2024-02-08T10:08:07.912Z,7.56
2024-02-08T10:13:07.869Z,7.59
2024-02-08T10:18:07.814Z,7.52
2024-02-08T10:23:07.728Z,7.49
2024-02-08T10:28:07.703Z,7.38
2024-02-08T10:33:07.662Z,7.55
2024-02-08T10:38:07.484Z,7.58
2024-02-08T10:43:07.499Z,7.85
2024-02-08T10:48:07.389Z,7.69
2024-02-08T10:53:07.297Z,7.74
2024-02-08T10:58:07.315Z,8.02
2024-02-08T11:03:07.204Z,8.32
2024-02-08T11:08:07.137Z,8.63
2024-02-08T11:13:07.073Z,8.69
2024-02-08T11:18:09.083Z,8.21
2024-02-08T11:23:06.910Z,8.40
2024-02-08T11:28:14.317Z,8.53
2024-02-08T11:33:07.793Z,8.45
2024-02-08T11:38:06.687Z,8.62
2024-02-08T11:43:08.918Z,8.83
2024-02-08T11:48:06.697Z,8.36
2024-02-08T11:53:06.519Z,8.39
2024-02-08T11:58:06.531Z,8.21
2024-02-08T12:03:06.399Z,8.20
2024-02-08T12:08:06.355Z,8.30
2024-02-08T12:13:06.292Z,8.44
2024-02-08T12:18:06.275Z,8.54
2024-02-08T12:23:06.126Z,8.45
2024-02-08T12:28:06.461Z,8.45
2024-02-08T12:33:06.105Z,8.65
2024-02-08T12:38:05.957Z,8.62
2024-02-08T12:43:05.893Z,8.33
2024-02-08T12:48:06.075Z,8.30
2024-02-08T12:53:05.728Z,8.36
2024-02-08T12:58:06.398Z,8.35
2024-02-08T13:03:05.680Z,8.25
2024-02-08T13:08:05.651Z,7.90
2024-02-08T13:13:05.705Z,7.72
2024-02-08T13:18:05.547Z,7.58
2024-02-08T13:23:05.366Z,7.27
2024-02-08T13:28:05.336Z,7.40
2024-02-08T13:33:05.256Z,7.37
2024-02-08T13:38:05.324Z,7.52
2024-02-08T13:43:05.275Z,7.55
2024-02-08T13:48:05.368Z,7.75
2024-02-08T13:53:05.776Z,7.62
2024-02-08T13:58:04.901Z,7.35
2024-02-08T14:03:04.848Z,7.16
2024-02-08T14:08:04.757Z,7.08
2024-02-08T14:13:04.742Z,6.91
2024-02-08T14:18:04.718Z,6.91
2024-02-08T14:23:04.548Z,6.79
2024-02-08T14:28:04.525Z,6.77
2024-02-08T14:33:04.953Z,6.79
2024-02-08T14:38:04.371Z,6.69
2024-02-08T14:43:04.350Z,6.80
2024-02-08T14:48:04.320Z,6.81
2024-02-08T14:53:04.496Z,6.76
2024-02-08T14:58:04.187Z,6.59
2024-02-08T15:03:04.318Z,6.53
2024-02-08T15:08:03.974Z,6.46
2024-02-08T15:13:04.016Z,6.38
2024-02-08T15:18:03.872Z,6.29
2024-02-08T15:23:03.754Z,6.18
2024-02-08T15:28:03.846Z,6.10
2024-02-08T15:33:03.694Z,6.04
2024-02-08T15:38:03.663Z,6.04
2024-02-08T15:43:03.519Z,5.89
2024-02-08T15:48:04.246Z,5.85
2024-02-08T15:53:03.401Z,5.86
2024-02-08T15:58:03.347Z,5.91
2024-02-08T16:03:03.725Z,5.89
2024-02-08T16:08:03.229Z,5.82
2024-02-08T16:13:03.152Z,5.73
2024-02-08T16:18:03.133Z,5.70
2024-02-08T16:23:02.989Z,5.63
2024-02-08T16:28:02.935Z,5.50
2024-02-08T16:33:02.904Z,5.43
2024-02-08T16:38:02.776Z,5.28
2024-02-08T16:43:02.788Z,5.22
2024-02-08T16:48:02.694Z,5.23
2024-02-08T16:53:02.572Z,5.23
2024-02-08T16:58:02.909Z,5.16
2024-02-08T17:03:02.445Z,5.13
2024-02-08T17:08:02.387Z,4.99
2024-02-08T17:13:02.361Z,4.95
2024-02-08T17:18:02.327Z,4.92
2024-02-08T17:23:02.189Z,4.73
2024-02-08T17:28:02.324Z,4.57
2024-02-08T17:33:02.284Z,4.47
2024-02-08T17:38:02.088Z,4.39
2024-02-08T17:43:02.034Z,4.52
2024-02-08T17:48:02.312Z,4.29
2024-02-08T17:53:01.800Z,4.24
2024-02-08T17:58:01.771Z,4.39
2024-02-08T18:03:01.679Z,4.42
2024-02-08T18:08:01.826Z,4.61
2024-02-08T18:13:02.970Z,4.39
2024-02-08T18:18:01.523Z,4.44
2024-02-08T18:23:01.437Z,4.57
2024-02-08T18:28:01.714Z,4.52
2024-02-08T18:33:01.327Z,4.51
2024-02-08T18:38:01.249Z,4.36
2024-02-08T18:43:01.170Z,4.28
2024-02-08T18:48:01.158Z,4.37
2024-02-08T18:53:01.058Z,4.50
2024-02-08T18:58:01.150Z,4.62
2024-02-08T19:03:00.940Z,4.76
2024-02-08T19:08:00.853Z,4.69
2024-02-08T19:13:01.004Z,4.99
2024-02-08T19:18:06.220Z,5.10
2024-02-08T19:23:01.644Z,5.05
2024-02-08T19:28:00.688Z,4.94
2024-02-08T19:33:00.630Z,4.79
2024-02-08T19:38:00.463Z,4.51
2024-02-08T19:43:00.458Z,4.51
2024-02-08T19:48:00.352Z,4.40
2024-02-08T19:53:00.278Z,4.44
2024-02-08T19:58:00.539Z,4.43
2024-02-08T20:03:00.132Z,4.50
2024-02-08T20:08:00.109Z,4.58
2024-02-08T20:13:00.015Z,4.46
2024-02-08T20:18:00.176Z,4.37
2024-02-08T20:23:00.018Z,4.43
2024-02-08T20:28:00.289Z,4.42
2024-02-08T20:32:59.829Z,4.28
2024-02-08T20:37:59.690Z,4.21
2024-02-08T20:42:59.765Z,4.26
2024-02-08T20:47:59.571Z,4.21
2024-02-08T20:52:59.484Z,4.25
2024-02-08T20:57:59.428Z,4.19
2024-02-08T21:03:00.238Z,4.25
2024-02-08T21:07:59.309Z,4.32
2024-02-08T21:12:59.380Z,4.36
2024-02-08T21:17:59.236Z,4.44
2024-02-08T21:22:59.192Z,4.51
2024-02-08T21:27:59.084Z,4.59
2024-02-08T21:32:59.055Z,4.65
2024-02-08T21:37:58.909Z,4.70
2024-02-08T21:42:58.879Z,4.76
2024-02-08T21:47:58.818Z,4.76
2024-02-08T21:52:58.776Z,4.91
2024-02-08T21:57:58.694Z,4.91
2024-02-08T22:02:58.807Z,4.88
2024-02-08T22:07:58.774Z,4.95
2024-02-08T22:12:58.631Z,4.99
2024-02-08T22:17:58.509Z,5.13
2024-02-08T22:22:58.506Z,5.17
2024-02-08T22:27:58.467Z,5.25
2024-02-08T22:32:58.338Z,5.35
2024-02-08T22:37:58.205Z,5.43
2024-02-08T22:42:58.217Z,5.45
2024-02-08T22:47:58.145Z,5.48
2024-02-08T22:52:58.044Z,5.55
2024-02-08T22:57:58.020Z,5.53
2024-02-08T23:02:57.881Z,5.55
2024-02-08T23:07:57.823Z,5.53
2024-02-08T23:12:57.827Z,5.57
2024-02-08T23:17:57.714Z,5.66
2024-02-08T23:22:57.648Z,5.66
2024-02-08T23:27:57.560Z,5.67
2024-02-08T23:32:57.537Z,5.67
2024-02-08T23:37:57.426Z,5.60
2024-02-08T23:42:57.383Z,5.63
2024-02-08T23:47:57.352Z,5.64
2024-02-08T23:52:57.259Z,5.63
2024-02-08T23:57:57.191Z,5.57
